createdAt,value
2023-03-17T00:01:17.493Z,40.40
2023-03-17T00:04:34.137Z,40.40
2023-03-17T00:08:08.062Z,32.90
2023-03-17T00:11:42.405Z,27.70
2023-03-17T00:15:16.386Z,28.10
2023-03-17T00:18:36.747Z,31.50
2023-03-17T00:22:28.882Z,30.40
2023-03-17T00:26:31.370Z,31.60
2023-03-17T00:30:34.304Z,25.90
2023-03-17T00:34:22.424Z,29.60
2023-03-17T00:38:04.003Z,30.70
2023-03-17T00:41:38.289Z,26.50
2023-03-17T00:45:42.271Z,33.00
2023-03-17T00:49:20.747Z,31.50
2023-03-17T00:52:55.958Z,29.40
2023-03-17T00:56:31.879Z,34.20
2023-03-17T01:00:27.741Z,35.10
2023-03-17T01:04:04.695Z,33.20
2023-03-17T01:07:47.410Z,34.90
2023-03-17T01:11:24.855Z,34.10
2023-03-17T01:14:19.447Z,33.30
2023-03-17T01:17:34.426Z,27.80
2023-03-17T01:21:38.467Z,35.00
2023-03-17T01:24:54.447Z,34.90
2023-03-17T01:28:00.865Z,35.40
2023-03-17T01:31:35.400Z,35.30
2023-03-17T01:35:19.151Z,39.00
2023-03-17T01:38:48.160Z,38.60
2023-03-17T01:42:41.350Z,33.30
2023-03-17T01:46:52.665Z,42.30
2023-03-17T01:50:56.731Z,39.00
2023-03-17T01:54:35.733Z,40.60
2023-03-17T01:58:25.240Z,39.50
2023-03-17T02:02:10.619Z,40.40
2023-03-17T02:06:14.656Z,36.10
2023-03-17T02:10:07.409Z,32.10
2023-03-17T02:14:04.149Z,35.30
2023-03-17T02:18:08.140Z,36.30
2023-03-17T02:22:14.988Z,32.40
2023-03-17T02:26:08.880Z,33.90
2023-03-17T02:30:12.780Z,34.50
2023-03-17T02:34:07.838Z,35.20
2023-03-17T02:38:01.735Z,37.60
2023-03-17T02:42:04.746Z,38.30
2023-03-17T02:45:44.468Z,36.70
2023-03-17T02:49:48.409Z,36.30
2023-03-17T02:53:51.938Z,39.60
2023-03-17T02:57:55.799Z,34.70
2023-03-17T03:01:59.759Z,43.60
2023-03-17T03:06:03.641Z,33.80
2023-03-17T03:09:59.121Z,35.00
2023-03-17T03:14:03.058Z,39.80
2023-03-17T03:17:52.508Z,43.60
2023-03-17T03:21:56.391Z,43.50
2023-03-17T03:26:00.348Z,38.20
2023-03-17T03:30:04.328Z,40.60
2023-03-17T03:34:06.733Z,45.60
2023-03-17T03:38:04.142Z,46.70
2023-03-17T03:42:08.010Z,46.00
2023-03-17T03:46:04.366Z,40.50
2023-03-17T03:50:08.413Z,43.70
2023-03-17T03:53:55.437Z,45.00
2023-03-17T03:57:53.033Z,44.40
2023-03-17T04:01:49.543Z,43.70
2023-03-17T04:05:46.225Z,41.60
2023-03-17T04:09:50.300Z,40.00
2023-03-17T04:13:54.166Z,39.60
2023-03-17T04:17:58.045Z,40.70
2023-03-17T04:22:01.912Z,41.10
2023-03-17T04:26:06.046Z,41.10
2023-03-17T04:30:10.658Z,36.40
2023-03-17T04:34:13.320Z,38.90
2023-03-17T04:38:03.724Z,45.90
2023-03-17T04:42:00.038Z,41.90
2023-03-17T04:45:56.646Z,43.00
2023-03-17T04:50:00.555Z,46.50
2023-03-17T04:54:04.431Z,39.60
2023-03-17T04:58:00.839Z,45.90
2023-03-17T05:01:57.664Z,40.60
2023-03-17T05:06:01.566Z,40.70
2023-03-17T05:10:05.512Z,42.60
2023-03-17T05:14:09.621Z,44.60
2023-03-17T05:18:11.984Z,45.60
2023-03-17T05:22:15.979Z,47.20
2023-03-17T05:26:09.925Z,59.90
2023-03-17T05:30:13.821Z,46.70
2023-03-17T05:34:17.742Z,41.70
2023-03-17T05:38:48.948Z,42.50
2023-03-17T05:42:52.901Z,39.20
2023-03-17T05:46:55.828Z,43.00
2023-03-17T05:50:59.791Z,45.30
2023-03-17T05:55:03.760Z,38.80
2023-03-17T05:59:07.721Z,39.50
2023-03-17T06:03:11.876Z,43.00
2023-03-17T06:07:16.050Z,36.30
2023-03-17T06:11:20.145Z,35.60
2023-03-17T06:15:24.129Z,36.00
2023-03-17T06:19:28.253Z,38.80
2023-03-17T06:23:32.317Z,32.60
2023-03-17T06:27:36.197Z,45.00
2023-03-17T06:31:40.171Z,44.50
2023-03-17T06:35:44.196Z,45.00
2023-03-17T06:39:48.212Z,41.80
2023-03-17T06:43:52.265Z,35.70
2023-03-17T06:47:56.348Z,33.20
2023-03-17T06:52:00.394Z,41.70
2023-03-17T06:56:05.079Z,34.90
2023-03-17T07:00:09.014Z,33.50
2023-03-17T07:04:13.039Z,34.20
2023-03-17T07:08:17.168Z,32.40
2023-03-17T07:12:21.073Z,36.80
2023-03-17T07:16:25.342Z,32.30
2023-03-17T07:20:29.563Z,28.40
2023-03-17T07:24:25.844Z,27.40
2023-03-17T07:28:30.680Z,28.40
2023-03-17T07:32:34.710Z,27.90
2023-03-17T07:36:38.747Z,30.70
2023-03-17T07:44:26.475Z,27.10
2023-03-17T07:52:15.425Z,28.50
2023-03-17T07:56:19.392Z,31.40
2023-03-17T08:03:44.817Z,34.50
2023-03-17T08:11:32.293Z,32.60
2023-03-17T08:15:36.358Z,28.70
2023-03-17T08:23:23.903Z,32.30
2023-03-17T08:27:21.553Z,32.90
2023-03-17T08:31:25.580Z,26.90
2023-03-17T08:35:30.001Z,29.60
2023-03-17T08:39:34.338Z,32.80
2023-03-17T08:43:39.547Z,28.20
2023-03-17T08:47:43.584Z,31.10
2023-03-17T08:51:48.772Z,33.10
2023-03-17T08:55:52.640Z,28.20
2023-03-17T08:59:56.600Z,32.40
2023-03-17T09:04:00.792Z,34.60
2023-03-17T09:08:04.940Z,38.40
2023-03-17T09:12:08.905Z,29.50
2023-03-17T09:16:11.754Z,31.30
2023-03-17T09:20:15.708Z,37.10
2023-03-17T09:24:13.651Z,35.80
2023-03-17T09:28:08.881Z,34.20
2023-03-17T09:32:11.654Z,30.40
2023-03-17T09:36:15.679Z,23.70
2023-03-17T09:40:19.669Z,27.60
2023-03-17T09:44:25.345Z,28.80
2023-03-17T09:48:38.324Z,29.30
2023-03-17T09:52:42.287Z,26.20
2023-03-17T09:56:46.331Z,23.30
2023-03-17T10:00:52.965Z,27.20
2023-03-17T10:04:45.673Z,30.30
2023-03-17T10:08:52.818Z,24.50
2023-03-17T10:13:02.099Z,25.90
2023-03-17T10:17:09.036Z,28.50
2023-03-17T10:21:13.398Z,33.20
2023-03-17T10:29:09.987Z,25.70
2023-03-17T10:33:13.934Z,27.10
2023-03-17T10:37:17.920Z,28.00
2023-03-17T10:41:27.693Z,29.30
2023-03-17T10:45:52.950Z,27.40
2023-03-17T10:50:03.143Z,29.60
2023-03-17T10:54:07.203Z,30.90
2023-03-17T10:58:11.168Z,32.70
2023-03-17T11:02:18.302Z,32.00
2023-03-17T11:06:22.382Z,27.40
2023-03-17T11:10:30.309Z,31.80
2023-03-17T11:14:37.480Z,27.80
2023-03-17T11:18:56.484Z,33.30
2023-03-17T11:23:03.186Z,27.90
2023-03-17T11:27:21.388Z,28.30
2023-03-17T11:31:27.015Z,35.10
2023-03-17T11:35:39.800Z,28.00
2023-03-17T11:39:53.732Z,34.30
2023-03-17T11:44:12.640Z,32.00
2023-03-17T11:48:34.709Z,31.50
2023-03-17T11:52:50.647Z,35.50
2023-03-17T11:56:47.985Z,32.80
2023-03-17T12:00:49.696Z,31.70
2023-03-17T12:04:56.399Z,29.80
2023-03-17T12:09:03.438Z,29.90
2023-03-17T12:13:07.368Z,25.90
2023-03-17T12:17:17.978Z,32.60
2023-03-17T12:21:27.708Z,26.40
2023-03-17T12:25:37.693Z,30.30
2023-03-17T12:29:52.014Z,27.10
2023-03-17T12:37:45.720Z,25.30
2023-03-17T12:41:51.638Z,25.40
2023-03-17T12:46:04.722Z,22.80
2023-03-17T12:50:23.594Z,24.90
2023-03-17T12:54:23.157Z,22.60
2023-03-17T12:58:30.221Z,22.60
2023-03-17T13:02:46.314Z,19.60
2023-03-17T13:06:53.258Z,21.60
2023-03-17T13:10:59.947Z,21.20
2023-03-17T13:15:22.127Z,22.80
2023-03-17T13:19:28.761Z,20.90
2023-03-17T13:23:40.893Z,22.30
2023-03-17T13:27:50.969Z,20.90
2023-03-17T13:31:51.796Z,20.60
2023-03-17T13:35:55.996Z,16.30
2023-03-17T13:43:43.884Z,16.70
2023-03-17T13:47:46.098Z,20.00
2023-03-17T13:51:26.840Z,17.80
2023-03-17T13:55:31.163Z,14.90
2023-03-17T13:59:37.818Z,17.90
2023-03-17T14:03:44.552Z,13.90
2023-03-17T14:07:48.620Z,17.10
2023-03-17T14:11:58.401Z,17.30
2023-03-17T14:16:05.042Z,15.00
2023-03-17T14:20:21.069Z,13.70
2023-03-17T14:24:20.106Z,13.70
2023-03-17T14:28:18.588Z,16.30
2023-03-17T14:32:22.631Z,14.50
2023-03-17T14:36:27.737Z,17.40
2023-03-17T14:40:31.880Z,18.20
2023-03-17T14:48:19.442Z,16.00
2023-03-17T14:52:23.914Z,16.40
2023-03-17T15:00:09.579Z,16.80
2023-03-17T15:04:12.433Z,16.80
2023-03-17T15:08:18.096Z,15.80
2023-03-17T15:12:22.067Z,16.20
2023-03-17T15:16:25.477Z,17.30
2023-03-17T15:20:34.567Z,20.80
2023-03-17T15:24:38.940Z,21.30
2023-03-17T15:28:34.719Z,19.40
2023-03-17T15:32:15.580Z,24.40
2023-03-17T15:36:31.829Z,16.40
2023-03-17T15:40:40.080Z,15.40
2023-03-17T15:44:44.043Z,20.70
2023-03-17T15:48:53.917Z,17.80
2023-03-17T15:52:56.554Z,20.70
2023-03-17T15:57:00.566Z,24.70
2023-03-17T16:01:05.912Z,19.20
2023-03-17T16:08:54.287Z,20.60
2023-03-17T16:12:58.250Z,19.10
2023-03-17T16:17:02.348Z,21.20
2023-03-17T16:21:05.457Z,26.90
2023-03-17T16:25:02.348Z,23.20
2023-03-17T16:29:09.281Z,29.20
2023-03-17T16:32:57.189Z,20.90
2023-03-17T16:36:54.010Z,24.10
2023-03-17T16:40:37.814Z,29.30
2023-03-17T16:44:41.620Z,31.70
2023-03-17T16:48:40.401Z,32.60
2023-03-17T16:52:44.349Z,26.60
2023-03-17T16:56:41.739Z,31.40
2023-03-17T17:00:46.028Z,27.80
2023-03-17T17:04:39.976Z,34.40
2023-03-17T17:08:44.074Z,23.20
2023-03-17T17:12:46.784Z,30.20
2023-03-17T17:20:34.855Z,31.20
2023-03-17T17:24:21.519Z,29.30
2023-03-17T17:28:11.763Z,25.70
2023-03-17T17:32:15.726Z,27.10
2023-03-17T17:36:19.580Z,33.60
2023-03-17T17:40:23.770Z,38.70
2023-03-17T17:44:27.822Z,38.20
2023-03-17T17:48:31.794Z,34.10
2023-03-17T17:52:35.648Z,32.00
2023-03-17T17:56:39.166Z,29.50
2023-03-17T18:00:43.215Z,33.20
2023-03-17T18:04:37.193Z,34.20
2023-03-17T18:08:41.190Z,32.20
2023-03-17T18:12:45.328Z,30.80
2023-03-17T18:16:49.346Z,34.30
2023-03-17T18:20:53.417Z,32.70
2023-03-17T18:24:50.994Z,32.00
2023-03-17T18:28:55.142Z,30.40
2023-03-17T18:32:59.229Z,31.70
2023-03-17T18:37:03.144Z,34.70
2023-03-17T18:41:06.989Z,36.10
2023-03-17T18:45:10.909Z,32.90
2023-03-17T18:49:14.972Z,33.90
2023-03-17T18:53:18.956Z,37.10
2023-03-17T18:57:22.876Z,38.50
2023-03-17T19:01:26.891Z,39.30
2023-03-17T19:05:31.126Z,38.10
2023-03-17T19:09:36.011Z,36.50
2023-03-17T19:13:34.027Z,35.90
2023-03-17T19:17:38.090Z,43.40
2023-03-17T19:21:42.160Z,41.60
2023-03-17T19:25:43.560Z,36.70
2023-03-17T19:29:47.567Z,42.20
2023-03-17T19:33:35.620Z,40.20
2023-03-17T19:37:39.703Z,37.10
2023-03-17T19:41:43.649Z,43.10
2023-03-17T19:45:47.780Z,41.70
2023-03-17T19:49:38.584Z,49.70
2023-03-17T19:53:42.366Z,47.70
2023-03-17T19:57:46.323Z,39.20
2023-03-17T20:01:50.355Z,35.10
2023-03-17T20:05:54.433Z,37.20
2023-03-17T20:09:58.309Z,34.30
2023-03-17T20:14:03.222Z,39.30
2023-03-17T20:18:07.971Z,36.80
2023-03-17T20:22:11.962Z,40.70
2023-03-17T20:26:15.886Z,37.60
2023-03-17T20:30:20.163Z,47.30
2023-03-17T20:34:24.121Z,40.00
2023-03-17T20:38:28.180Z,43.60
2023-03-17T20:42:17.918Z,44.90
2023-03-17T20:46:23.456Z,46.50
2023-03-17T20:50:26.301Z,41.50
2023-03-17T20:54:30.469Z,46.50
2023-03-17T20:58:34.498Z,37.80
2023-03-17T21:02:38.458Z,45.80
2023-03-17T21:06:41.716Z,45.60
2023-03-17T21:10:45.968Z,40.60
2023-03-17T21:14:50.062Z,47.40
2023-03-17T21:18:54.000Z,38.70
2023-03-17T21:22:47.930Z,39.10
2023-03-17T21:26:55.083Z,44.20
2023-03-17T21:30:38.192Z,43.30
2023-03-17T21:34:42.238Z,41.50
2023-03-17T21:38:46.314Z,41.80
2023-03-17T21:42:50.467Z,46.60
2023-03-17T21:46:54.508Z,42.30
2023-03-17T21:50:58.597Z,41.90
2023-03-17T21:55:02.745Z,33.70
2023-03-17T21:58:56.919Z,42.70
2023-03-17T22:06:44.682Z,39.30
2023-03-17T22:10:48.792Z,44.60
2023-03-17T22:14:52.882Z,39.70
2023-03-17T22:18:56.882Z,39.00
2023-03-17T22:23:00.826Z,41.10
2023-03-17T22:27:04.912Z,43.90
2023-03-17T22:31:02.502Z,39.90
2023-03-17T22:34:58.206Z,36.40
2023-03-17T22:38:55.518Z,39.40
2023-03-17T22:42:48.431Z,34.90
2023-03-17T22:46:45.082Z,36.90
2023-03-17T22:50:49.455Z,32.30
2023-03-17T22:54:53.328Z,39.50
2023-03-17T22:58:58.018Z,37.90
2023-03-17T23:03:00.715Z,35.50
2023-03-17T23:07:04.694Z,32.80
2023-03-17T23:11:08.604Z,34.00
2023-03-17T23:15:12.674Z,32.70
2023-03-17T23:19:16.729Z,35.20
2023-03-17T23:23:13.282Z,35.20
2023-03-17T23:27:16.801Z,33.80
2023-03-17T23:31:00.935Z,28.10
2023-03-17T23:38:48.638Z,31.30
2023-03-17T23:42:52.867Z,32.30
2023-03-17T23:46:49.770Z,31.80
2023-03-17T23:50:53.846Z,33.50
2023-03-17T23:54:57.713Z,37.40
2023-03-17T23:59:01.757Z,35.30
